PWSweather.com
Personal Weather Stations
Station Observations
KERKRADE
Kerkrade, KerkradeNL 6467

KerkradeKerkradeNL 6467

Lat: 50.8677578, Lon: 6.024959399999943

Elevation: 508

Station Type: Vantage Pro2 +

https://weerstation-parkstad.nl

Latest ConditionsUpdated 12:41:46 PM GMT+01:01 Tuesday, Dec 10, 2019
Currently Today's Max Today's Min Today's Average
Temperature 42.3°F5.7°C 42.3°F5.7°C 35.2°F1.8°C 37.0°F2.8°C
Dew Point 36.0°F2.2°C 37.2°F2.9°C 34.2°F1.2°C 35.4°F1.9°C
Winds 6.9 mph SW11.1 kmh SW 6.9 mph -11.1 kmh - - 3.6 mph 5.8 kmh
Wind Gusts 13.0 mph20.9 kmh 18.0 mph29.0 kmh - -
Humidity 78% 98% 78% 94%
Pressure 30.28 in1025.4 mb 30.33 in1027.1 mb 30.18 in1022.0 mb -
Hour Temp Dew Point Humidity Winds Wind Gusts Pressure Precip Precip Rate Daily Precip Total
12:41 PM 42.3°F5.7°C 36.0°F2.2°C 78% 6.9 mph SW11.1 kmh SW 13.0 mph20.9 kmh 30.28 in1025.4 mb 0.00 in0.0 mm 0.00 in0.0 mm 0.00 in0.0 mm
12:36 PM 42.3°F5.7°C 36.0°F2.2°C 78% 6.9 mph SSW11.1 kmh SSW 15.0 mph24.1 kmh 30.28 in1025.4 mb 0.00 in0.0 mm 0.00 in0.0 mm 0.00 in0.0 mm
12:31 PM 41.9°F5.5°C 35.8°F2.1°C 79% 6.9 mph SW11.1 kmh SW 13.0 mph20.9 kmh 30.28 in1025.4 mb 0.00 in0.0 mm 0.00 in0.0 mm 0.00 in0.0 mm
12:26 PM 41.7°F5.4°C 35.4°F1.9°C 78% 6.0 mph SW9.7 kmh SW 16.0 mph25.7 kmh 30.29 in1025.7 mb 0.00 in0.0 mm 0.00 in0.0 mm 0.00 in0.0 mm
12:21 PM 41.7°F5.4°C 36.0°F2.2°C 80% 6.9 mph SW11.1 kmh SW 10.1 mph16.3 kmh 30.29 in1025.7 mb 0.00 in0.0 mm 0.00 in0.0 mm 0.00 in0.0 mm
12:16 PM 41.7°F5.4°C 36.0°F2.2°C 80% 6.9 mph SSW11.1 kmh SSW 16.1 mph25.9 kmh 30.29 in1025.7 mb 0.00 in0.0 mm 0.00 in0.0 mm 0.00 in0.0 mm
12:11 PM 41.5°F5.3°C 36.5°F2.5°C 82% 6.0 mph SW9.7 kmh SW 14.0 mph22.5 kmh 30.29 in1025.7 mb 0.00 in0.0 mm 0.00 in0.0 mm 0.00 in0.0 mm
12:05 PM 41.5°F5.3°C 36.5°F2.5°C 82% 6.0 mph SSW9.7 kmh SSW 11.0 mph17.7 kmh 30.29 in1025.7 mb 0.00 in0.0 mm 0.00 in0.0 mm 0.00 in0.0 mm
12:00 PM 41.4°F5.2°C 36.5°F2.5°C 83% 4.9 mph SSE7.9 kmh SSE 12.0 mph19.3 kmh 30.29 in1025.7 mb 0.00 in0.0 mm 0.00 in0.0 mm 0.00 in0.0 mm
11:55 AM 41.2°F5.1°C 36.5°F2.5°C 83% 6.0 mph WSW9.7 kmh WSW 10.1 mph16.3 kmh 30.30 in1026.1 mb 0.00 in0.0 mm 0.00 in0.0 mm 0.00 in0.0 mm
11:50 AM 40.6°F4.8°C 36.5°F2.5°C 85% 4.9 mph SSW7.9 kmh SSW 12.1 mph19.5 kmh 30.30 in1026.1 mb 0.00 in0.0 mm 0.00 in0.0 mm 0.00 in0.0 mm
11:45 AM 40.3°F4.6°C 36.7°F2.6°C 87% 4.9 mph SW7.9 kmh SW 8.1 mph13.0 kmh 30.30 in1026.1 mb 0.00 in0.0 mm 0.00 in0.0 mm 0.00 in0.0 mm
11:40 AM 39.7°F4.3°C 36.5°F2.5°C 88% 4.0 mph SSW6.4 kmh SSW 12.1 mph19.5 kmh 30.31 in1026.4 mb 0.00 in0.0 mm 0.00 in0.0 mm 0.00 in0.0 mm
11:35 AM 39.6°F4.2°C 36.3°F2.4°C 88% 4.9 mph SW7.9 kmh SW 11.0 mph17.7 kmh 30.31 in1026.4 mb 0.00 in0.0 mm 0.00 in0.0 mm 0.00 in0.0 mm
11:30 AM 39.6°F4.2°C 36.3°F2.4°C 88% 4.9 mph SW7.9 kmh SW 10.1 mph16.3 kmh 30.32 in1026.8 mb 0.00 in0.0 mm 0.00 in0.0 mm 0.00 in0.0 mm
11:24 AM 39.6°F4.2°C 36.3°F2.4°C 88% 4.0 mph S6.4 kmh S 11.0 mph17.7 kmh 30.32 in1026.8 mb 0.00 in0.0 mm 0.00 in0.0 mm 0.00 in0.0 mm
11:19 AM 39.6°F4.2°C 36.5°F2.5°C 89% 4.9 mph S7.9 kmh S 16.0 mph25.7 kmh 30.32 in1026.8 mb 0.00 in0.0 mm 0.00 in0.0 mm 0.00 in0.0 mm
11:14 AM 39.4°F4.1°C 36.5°F2.5°C 89% 6.0 mph SW9.7 kmh SW 13.0 mph20.9 kmh 30.32 in1026.8 mb 0.00 in0.0 mm 0.00 in0.0 mm 0.00 in0.0 mm
11:09 AM 39.2°F4.0°C 36.5°F2.5°C 90% 4.9 mph S7.9 kmh S 12.0 mph19.3 kmh 30.32 in1026.8 mb 0.00 in0.0 mm 0.00 in0.0 mm 0.00 in0.0 mm
11:04 AM 38.8°F3.8°C 36.5°F2.5°C 91% 4.9 mph SSW7.9 kmh SSW 10.1 mph16.3 kmh 30.32 in1026.8 mb 0.00 in0.0 mm 0.00 in0.0 mm 0.00 in0.0 mm
10:59 AM 38.8°F3.8°C 36.5°F2.5°C 91% 4.9 mph S7.9 kmh S 12.1 mph19.5 kmh 30.32 in1026.8 mb 0.00 in0.0 mm 0.00 in0.0 mm 0.00 in0.0 mm
10:54 AM 38.7°F3.7°C 36.5°F2.5°C 92% 4.0 mph SW6.4 kmh SW 8.1 mph13.0 kmh 30.32 in1026.8 mb 0.00 in0.0 mm 0.00 in0.0 mm 0.00 in0.0 mm
10:49 AM 38.5°F3.6°C 36.3°F2.4°C 92% 4.0 mph SW6.4 kmh SW 13.0 mph20.9 kmh 30.32 in1026.8 mb 0.00 in0.0 mm 0.00 in0.0 mm 0.00 in0.0 mm
10:44 AM 38.5°F3.6°C 36.3°F2.4°C 92% 4.9 mph S7.9 kmh S 6.9 mph11.1 kmh 30.32 in1026.8 mb 0.00 in0.0 mm 0.00 in0.0 mm 0.00 in0.0 mm
10:39 AM 38.3°F3.5°C 36.5°F2.5°C 93% 4.9 mph SW7.9 kmh SW 13.0 mph20.9 kmh 30.32 in1026.8 mb 0.00 in0.0 mm 0.00 in0.0 mm 0.00 in0.0 mm
10:33 AM 37.9°F3.3°C 36.3°F2.4°C 94% 6.0 mph SSW9.7 kmh SSW 11.0 mph17.7 kmh 30.32 in1026.8 mb 0.00 in0.0 mm 0.00 in0.0 mm 0.00 in0.0 mm
10:28 AM 37.6°F3.1°C 36.0°F2.2°C 94% 6.0 mph S9.7 kmh S 12.0 mph19.3 kmh 30.33 in1027.1 mb 0.00 in0.0 mm 0.00 in0.0 mm 0.00 in0.0 mm
10:23 AM 37.2°F2.9°C 36.0°F2.2°C 95% 6.0 mph S9.7 kmh S 11.0 mph17.7 kmh 30.33 in1027.1 mb 0.00 in0.0 mm 0.00 in0.0 mm 0.00 in0.0 mm
10:18 AM 36.9°F2.7°C 35.6°F2.0°C 95% 6.0 mph SSW9.7 kmh SSW 12.1 mph19.5 kmh 30.33 in1027.1 mb 0.00 in0.0 mm 0.00 in0.0 mm 0.00 in0.0 mm
10:13 AM 36.9°F2.7°C 35.6°F2.0°C 95% 6.0 mph SW9.7 kmh SW 8.9 mph14.3 kmh 30.32 in1026.8 mb 0.00 in0.0 mm 0.00 in0.0 mm 0.00 in0.0 mm
10:08 AM 36.7°F2.6°C 35.4°F1.9°C 95% 6.0 mph SSW9.7 kmh SSW 12.1 mph19.5 kmh 30.32 in1026.8 mb 0.00 in0.0 mm 0.00 in0.0 mm 0.00 in0.0 mm
10:03 AM 36.5°F2.5°C 35.2°F1.8°C 95% 6.0 mph SW9.7 kmh SW 10.1 mph16.3 kmh 30.32 in1026.8 mb 0.00 in0.0 mm 0.00 in0.0 mm 0.00 in0.0 mm
09:58 AM 36.5°F2.5°C 35.2°F1.8°C 95% 6.0 mph SW9.7 kmh SW 13.0 mph20.9 kmh 30.32 in1026.8 mb 0.00 in0.0 mm 0.00 in0.0 mm 0.00 in0.0 mm
09:52 AM 36.3°F2.4°C 35.1°F1.7°C 95% 6.0 mph SSW9.7 kmh SSW 10.1 mph16.3 kmh 30.32 in1026.8 mb 0.00 in0.0 mm 0.00 in0.0 mm 0.00 in0.0 mm
09:47 AM 36.1°F2.3°C 34.9°F1.6°C 95% 6.0 mph SSW9.7 kmh SSW 13.0 mph20.9 kmh 30.32 in1026.8 mb 0.00 in0.0 mm 0.00 in0.0 mm 0.00 in0.0 mm
09:42 AM 36.1°F2.3°C 34.9°F1.6°C 95% 4.9 mph SW7.9 kmh SW 8.9 mph14.3 kmh 30.32 in1026.8 mb 0.00 in0.0 mm 0.00 in0.0 mm 0.00 in0.0 mm
09:37 AM 36.0°F2.2°C 34.9°F1.6°C 96% 4.9 mph SW7.9 kmh SW 11.0 mph17.7 kmh 30.32 in1026.8 mb 0.00 in0.0 mm 0.00 in0.0 mm 0.00 in0.0 mm
09:32 AM 36.0°F2.2°C 34.9°F1.6°C 96% 4.9 mph SSW7.9 kmh SSW 6.9 mph11.1 kmh 30.32 in1026.8 mb 0.00 in0.0 mm 0.00 in0.0 mm 0.00 in0.0 mm
09:27 AM 36.0°F2.2°C 34.9°F1.6°C 96% 4.9 mph SSW7.9 kmh SSW 10.1 mph16.3 kmh 30.32 in1026.8 mb 0.00 in0.0 mm 0.00 in0.0 mm 0.00 in0.0 mm
09:21 AM 35.8°F2.1°C 34.7°F1.5°C 96% 4.0 mph SSW6.4 kmh SSW 6.9 mph11.1 kmh 30.32 in1026.8 mb 0.00 in0.0 mm 0.00 in0.0 mm 0.00 in0.0 mm
09:16 AM 35.6°F2.0°C 34.5°F1.4°C 96% 4.0 mph SW6.4 kmh SW 8.1 mph13.0 kmh 30.32 in1026.8 mb 0.00 in0.0 mm 0.00 in0.0 mm 0.00 in0.0 mm
09:11 AM 35.6°F2.0°C 34.5°F1.4°C 96% 4.0 mph SW6.4 kmh SW 8.9 mph14.3 kmh 30.32 in1026.8 mb 0.00 in0.0 mm 0.00 in0.0 mm 0.00 in0.0 mm
09:05 AM 35.6°F2.0°C 34.5°F1.4°C 96% 4.0 mph SW6.4 kmh SW 8.9 mph14.3 kmh 30.32 in1026.8 mb 0.00 in0.0 mm 0.00 in0.0 mm 0.00 in0.0 mm
09:00 AM 35.6°F2.0°C 34.5°F1.4°C 96% 2.9 mph SW4.7 kmh SW 7.0 mph11.3 kmh 30.32 in1026.8 mb 0.00 in0.0 mm 0.00 in0.0 mm 0.00 in0.0 mm
08:55 AM 35.6°F2.0°C 34.5°F1.4°C 96% 2.9 mph SW4.7 kmh SW 6.0 mph9.7 kmh 30.32 in1026.8 mb 0.00 in0.0 mm 0.00 in0.0 mm 0.00 in0.0 mm
08:50 AM 35.6°F2.0°C 34.5°F1.4°C 96% 4.0 mph SW6.4 kmh SW 8.0 mph12.9 kmh 30.32 in1026.8 mb 0.00 in0.0 mm 0.00 in0.0 mm 0.00 in0.0 mm
08:44 AM 35.6°F2.0°C 34.5°F1.4°C 96% 4.0 mph SW6.4 kmh SW 6.0 mph9.7 kmh 30.32 in1026.8 mb 0.00 in0.0 mm 0.00 in0.0 mm 0.00 in0.0 mm
08:39 AM 35.8°F2.1°C 34.7°F1.5°C 96% 4.0 mph SW6.4 kmh SW 8.1 mph13.0 kmh 30.32 in1026.8 mb 0.00 in0.0 mm 0.00 in0.0 mm 0.00 in0.0 mm
08:34 AM 35.6°F2.0°C 34.9°F1.6°C 97% 4.0 mph SW6.4 kmh SW 6.9 mph11.1 kmh 30.32 in1026.8 mb 0.00 in0.0 mm 0.00 in0.0 mm 0.00 in0.0 mm
08:29 AM 35.6°F2.0°C 34.9°F1.6°C 97% 4.0 mph SW6.4 kmh SW 9.0 mph14.5 kmh 30.32 in1026.8 mb 0.00 in0.0 mm 0.00 in0.0 mm 0.00 in0.0 mm
08:24 AM 35.6°F2.0°C 34.9°F1.6°C 97% 4.9 mph SW7.9 kmh SW 8.1 mph13.0 kmh 30.32 in1026.8 mb 0.00 in0.0 mm 0.00 in0.0 mm 0.00 in0.0 mm
08:18 AM 35.6°F2.0°C 34.9°F1.6°C 97% 4.0 mph SW6.4 kmh SW 10.0 mph16.1 kmh 30.32 in1026.8 mb 0.00 in0.0 mm 0.00 in0.0 mm 0.00 in0.0 mm
08:13 AM 35.6°F2.0°C 34.9°F1.6°C 97% 4.0 mph SW6.4 kmh SW 6.9 mph11.1 kmh 30.31 in1026.4 mb 0.00 in0.0 mm 0.00 in0.0 mm 0.00 in0.0 mm
08:08 AM 35.4°F1.9°C 34.7°F1.5°C 97% 4.9 mph SW7.9 kmh SW 10.1 mph16.3 kmh 30.31 in1026.4 mb 0.00 in0.0 mm 0.00 in0.0 mm 0.00 in0.0 mm
08:02 AM 35.4°F1.9°C 34.7°F1.5°C 97% 4.0 mph SW6.4 kmh SW 8.9 mph14.3 kmh 30.31 in1026.4 mb 0.00 in0.0 mm 0.00 in0.0 mm 0.00 in0.0 mm
07:57 AM 35.4°F1.9°C 34.7°F1.5°C 97% 4.0 mph SW6.4 kmh SW 8.1 mph13.0 kmh 30.30 in1026.1 mb 0.00 in0.0 mm 0.00 in0.0 mm 0.00 in0.0 mm
07:52 AM 35.4°F1.9°C 34.9°F1.6°C 98% 4.0 mph SW6.4 kmh SW 8.1 mph13.0 kmh 30.30 in1026.1 mb 0.00 in0.0 mm 0.00 in0.0 mm 0.00 in0.0 mm
07:47 AM 35.2°F1.8°C 34.7°F1.5°C 98% 4.0 mph SW6.4 kmh SW 6.9 mph11.1 kmh 30.30 in1026.1 mb 0.00 in0.0 mm 0.00 in0.0 mm 0.00 in0.0 mm
07:42 AM 35.2°F1.8°C 34.7°F1.5°C 98% 4.0 mph SW6.4 kmh SW 8.1 mph13.0 kmh 30.29 in1025.7 mb 0.00 in0.0 mm 0.00 in0.0 mm 0.00 in0.0 mm
07:37 AM 35.2°F1.8°C 34.7°F1.5°C 98% 2.9 mph SW4.7 kmh SW 6.0 mph9.7 kmh 30.29 in1025.7 mb 0.00 in0.0 mm 0.00 in0.0 mm 0.00 in0.0 mm
07:32 AM 35.2°F1.8°C 34.7°F1.5°C 98% 2.0 mph SW3.2 kmh SW 7.0 mph11.3 kmh 30.29 in1025.7 mb 0.00 in0.0 mm 0.00 in0.0 mm 0.00 in0.0 mm
07:26 AM 35.2°F1.8°C 34.5°F1.4°C 97% 2.0 mph SW3.2 kmh SW 6.0 mph9.7 kmh 30.29 in1025.7 mb 0.00 in0.0 mm 0.00 in0.0 mm 0.00 in0.0 mm
07:21 AM 35.2°F1.8°C 34.5°F1.4°C 97% 2.0 mph SW3.2 kmh SW 4.9 mph7.9 kmh 30.29 in1025.7 mb 0.00 in0.0 mm 0.00 in0.0 mm 0.00 in0.0 mm
07:16 AM 35.2°F1.8°C 34.5°F1.4°C 97% 2.0 mph SW3.2 kmh SW 6.0 mph9.7 kmh 30.29 in1025.7 mb 0.00 in0.0 mm 0.00 in0.0 mm 0.00 in0.0 mm
07:10 AM 35.2°F1.8°C 34.5°F1.4°C 97% 2.0 mph SW3.2 kmh SW 4.0 mph6.4 kmh 30.29 in1025.7 mb 0.00 in0.0 mm 0.00 in0.0 mm 0.00 in0.0 mm
07:05 AM 35.2°F1.8°C 34.5°F1.4°C 97% 2.9 mph SW4.7 kmh SW 6.0 mph9.7 kmh 30.29 in1025.7 mb 0.00 in0.0 mm 0.00 in0.0 mm 0.00 in0.0 mm
06:59 AM 35.2°F1.8°C 34.5°F1.4°C 97% 2.0 mph SW3.2 kmh SW 6.0 mph9.7 kmh 30.29 in1025.7 mb 0.00 in0.0 mm 0.00 in0.0 mm 0.00 in0.0 mm
06:54 AM 35.2°F1.8°C 34.5°F1.4°C 97% 2.9 mph SW4.7 kmh SW 4.0 mph6.4 kmh 30.29 in1025.7 mb 0.00 in0.0 mm 0.00 in0.0 mm 0.00 in0.0 mm
06:49 AM 35.2°F1.8°C 34.5°F1.4°C 97% 2.9 mph SW4.7 kmh SW 6.0 mph9.7 kmh 30.29 in1025.7 mb 0.00 in0.0 mm 0.00 in0.0 mm 0.00 in0.0 mm
06:44 AM 35.2°F1.8°C 34.5°F1.4°C 97% 0.9 mph SW1.4 kmh SW 6.0 mph9.7 kmh 30.29 in1025.7 mb 0.00 in0.0 mm 0.00 in0.0 mm 0.00 in0.0 mm
06:39 AM 35.2°F1.8°C 34.5°F1.4°C 97% 0.9 mph SW1.4 kmh SW 2.9 mph4.7 kmh 30.29 in1025.7 mb 0.00 in0.0 mm 0.00 in0.0 mm 0.00 in0.0 mm
06:33 AM 35.2°F1.8°C 34.5°F1.4°C 97% 2.0 mph SW3.2 kmh SW 6.0 mph9.7 kmh 30.29 in1025.7 mb 0.00 in0.0 mm 0.00 in0.0 mm 0.00 in0.0 mm
06:28 AM 35.2°F1.8°C 34.5°F1.4°C 97% 0.9 mph SW1.4 kmh SW 2.9 mph4.7 kmh 30.29 in1025.7 mb 0.00 in0.0 mm 0.00 in0.0 mm 0.00 in0.0 mm
06:22 AM 35.2°F1.8°C 34.2°F1.2°C 96% 2.0 mph SW3.2 kmh SW 4.0 mph6.4 kmh 30.29 in1025.7 mb 0.00 in0.0 mm 0.00 in0.0 mm 0.00 in0.0 mm
06:17 AM 35.2°F1.8°C 34.2°F1.2°C 96% 2.0 mph SW3.2 kmh SW 6.0 mph9.7 kmh 30.29 in1025.7 mb 0.00 in0.0 mm 0.00 in0.0 mm 0.00 in0.0 mm
06:12 AM 35.4°F1.9°C 34.3°F1.3°C 96% 2.9 mph SW4.7 kmh SW 4.0 mph6.4 kmh 30.28 in1025.4 mb 0.00 in0.0 mm 0.00 in0.0 mm 0.00 in0.0 mm
06:07 AM 35.4°F1.9°C 34.3°F1.3°C 96% 2.0 mph SW3.2 kmh SW 6.0 mph9.7 kmh 30.28 in1025.4 mb 0.00 in0.0 mm 0.00 in0.0 mm 0.00 in0.0 mm
06:01 AM 35.6°F2.0°C 34.5°F1.4°C 96% 2.0 mph SW3.2 kmh SW 4.9 mph7.9 kmh 30.28 in1025.4 mb 0.00 in0.0 mm 0.00 in0.0 mm 0.00 in0.0 mm
05:56 AM 35.6°F2.0°C 34.5°F1.4°C 96% 2.9 mph SW4.7 kmh SW 4.0 mph6.4 kmh 30.27 in1025.1 mb 0.00 in0.0 mm 0.00 in0.0 mm 0.00 in0.0 mm
05:51 AM 36.0°F2.2°C 34.9°F1.6°C 96% 2.9 mph SW4.7 kmh SW 8.0 mph12.9 kmh 30.27 in1025.1 mb 0.00 in0.0 mm 0.00 in0.0 mm 0.00 in0.0 mm
05:46 AM 36.0°F2.2°C 34.9°F1.6°C 96% 2.9 mph SW4.7 kmh SW 6.0 mph9.7 kmh 30.27 in1025.1 mb 0.00 in0.0 mm 0.00 in0.0 mm 0.00 in0.0 mm
05:41 AM 36.0°F2.2°C 34.9°F1.6°C 96% 2.9 mph WSW4.7 kmh WSW 8.1 mph13.0 kmh 30.28 in1025.4 mb 0.00 in0.0 mm 0.00 in0.0 mm 0.00 in0.0 mm
05:35 AM 36.0°F2.2°C 34.9°F1.6°C 96% 2.9 mph SW4.7 kmh SW 6.0 mph9.7 kmh 30.28 in1025.4 mb 0.00 in0.0 mm 0.00 in0.0 mm 0.00 in0.0 mm
05:30 AM 36.1°F2.3°C 34.9°F1.6°C 95% 2.9 mph SW4.7 kmh SW 6.0 mph9.7 kmh 30.28 in1025.4 mb 0.00 in0.0 mm 0.00 in0.0 mm 0.00 in0.0 mm
05:25 AM 36.1°F2.3°C 34.9°F1.6°C 95% 2.9 mph SW4.7 kmh SW 6.0 mph9.7 kmh 30.27 in1025.1 mb 0.00 in0.0 mm 0.00 in0.0 mm 0.00 in0.0 mm
05:20 AM 36.3°F2.4°C 35.2°F1.8°C 96% 2.0 mph SW3.2 kmh SW 9.0 mph14.5 kmh 30.27 in1025.1 mb 0.00 in0.0 mm 0.00 in0.0 mm 0.00 in0.0 mm
05:15 AM 36.3°F2.4°C 35.2°F1.8°C 96% 2.9 mph SW4.7 kmh SW 6.0 mph9.7 kmh 30.27 in1025.1 mb 0.00 in0.0 mm 0.00 in0.0 mm 0.00 in0.0 mm
05:10 AM 36.3°F2.4°C 35.2°F1.8°C 96% 2.9 mph SW4.7 kmh SW 8.9 mph14.3 kmh 30.27 in1025.1 mb 0.00 in0.0 mm 0.00 in0.0 mm 0.00 in0.0 mm
05:04 AM 36.1°F2.3°C 35.1°F1.7°C 96% 2.9 mph WSW4.7 kmh WSW 8.1 mph13.0 kmh 30.27 in1025.1 mb 0.00 in0.0 mm 0.00 in0.0 mm 0.00 in0.0 mm
04:59 AM 36.0°F2.2°C 34.9°F1.6°C 96% 2.9 mph WSW4.7 kmh WSW 6.9 mph11.1 kmh 30.27 in1025.1 mb 0.00 in0.0 mm 0.00 in0.0 mm 0.00 in0.0 mm
04:54 AM 36.0°F2.2°C 34.9°F1.6°C 96% 2.0 mph WSW3.2 kmh WSW 7.0 mph11.3 kmh 30.27 in1025.1 mb 0.00 in0.0 mm 0.00 in0.0 mm 0.00 in0.0 mm
04:49 AM 36.0°F2.2°C 34.9°F1.6°C 96% 2.0 mph W3.2 kmh W 4.9 mph7.9 kmh 30.27 in1025.1 mb 0.00 in0.0 mm 0.00 in0.0 mm 0.00 in0.0 mm
04:44 AM 36.1°F2.3°C 35.1°F1.7°C 96% 2.9 mph W4.7 kmh W 8.0 mph12.9 kmh 30.27 in1025.1 mb 0.00 in0.0 mm 0.00 in0.0 mm 0.00 in0.0 mm
04:39 AM 36.1°F2.3°C 35.1°F1.7°C 96% 2.9 mph WSW4.7 kmh WSW 6.9 mph11.1 kmh 30.27 in1025.1 mb 0.00 in0.0 mm 0.00 in0.0 mm 0.00 in0.0 mm
04:34 AM 36.1°F2.3°C 35.1°F1.7°C 96% 4.0 mph WSW6.4 kmh WSW 8.1 mph13.0 kmh 30.27 in1025.1 mb 0.00 in0.0 mm 0.00 in0.0 mm 0.00 in0.0 mm
04:29 AM 36.1°F2.3°C 35.1°F1.7°C 96% 4.0 mph WSW6.4 kmh WSW 8.1 mph13.0 kmh 30.26 in1024.7 mb 0.00 in0.0 mm 0.00 in0.0 mm 0.00 in0.0 mm
04:24 AM 36.0°F2.2°C 34.9°F1.6°C 96% 2.9 mph WSW4.7 kmh WSW 6.0 mph9.7 kmh 30.26 in1024.7 mb 0.00 in0.0 mm 0.00 in0.0 mm 0.00 in0.0 mm
04:19 AM 36.0°F2.2°C 34.9°F1.6°C 96% 2.9 mph WSW4.7 kmh WSW 11.0 mph17.7 kmh 30.26 in1024.7 mb 0.00 in0.0 mm 0.00 in0.0 mm 0.00 in0.0 mm
04:14 AM 36.0°F2.2°C 34.9°F1.6°C 96% 4.0 mph WSW6.4 kmh WSW 6.0 mph9.7 kmh 30.26 in1024.7 mb 0.00 in0.0 mm 0.00 in0.0 mm 0.00 in0.0 mm
04:09 AM 36.1°F2.3°C 34.9°F1.6°C 95% 4.0 mph W6.4 kmh W 11.0 mph17.7 kmh 30.26 in1024.7 mb 0.00 in0.0 mm 0.00 in0.0 mm 0.00 in0.0 mm
04:04 AM 36.1°F2.3°C 35.1°F1.7°C 96% 4.0 mph WSW6.4 kmh WSW 8.1 mph13.0 kmh 30.26 in1024.7 mb 0.00 in0.0 mm 0.00 in0.0 mm 0.00 in0.0 mm
03:59 AM 36.1°F2.3°C 35.1°F1.7°C 96% 4.0 mph SW6.4 kmh SW 10.0 mph16.1 kmh 30.26 in1024.7 mb 0.00 in0.0 mm 0.00 in0.0 mm 0.00 in0.0 mm
03:53 AM 36.1°F2.3°C 35.1°F1.7°C 96% 4.0 mph WSW6.4 kmh WSW 6.9 mph11.1 kmh 30.26 in1024.7 mb 0.00 in0.0 mm 0.00 in0.0 mm 0.00 in0.0 mm
03:48 AM 36.1°F2.3°C 35.1°F1.7°C 96% 4.0 mph SW6.4 kmh SW 10.1 mph16.3 kmh 30.26 in1024.7 mb 0.00 in0.0 mm 0.00 in0.0 mm 0.00 in0.0 mm
03:43 AM 36.1°F2.3°C 35.1°F1.7°C 96% 2.9 mph WSW4.7 kmh WSW 8.1 mph13.0 kmh 30.25 in1024.4 mb 0.00 in0.0 mm 0.00 in0.0 mm 0.00 in0.0 mm
03:38 AM 36.3°F2.4°C 35.2°F1.8°C 96% 2.0 mph W3.2 kmh W 6.0 mph9.7 kmh 30.25 in1024.4 mb 0.00 in0.0 mm 0.00 in0.0 mm 0.00 in0.0 mm
03:33 AM 36.3°F2.4°C 35.1°F1.7°C 95% 2.9 mph WSW4.7 kmh WSW 4.9 mph7.9 kmh 30.25 in1024.4 mb 0.00 in0.0 mm 0.00 in0.0 mm 0.00 in0.0 mm
03:28 AM 36.5°F2.5°C 35.2°F1.8°C 95% 2.9 mph WSW4.7 kmh WSW 8.0 mph12.9 kmh 30.25 in1024.4 mb 0.00 in0.0 mm 0.00 in0.0 mm 0.00 in0.0 mm
03:22 AM 36.5°F2.5°C 35.2°F1.8°C 95% 2.9 mph WSW4.7 kmh WSW 6.9 mph11.1 kmh 30.25 in1024.4 mb 0.00 in0.0 mm 0.00 in0.0 mm 0.00 in0.0 mm
03:17 AM 36.5°F2.5°C 35.2°F1.8°C 95% 2.9 mph SW4.7 kmh SW 9.0 mph14.5 kmh 30.25 in1024.4 mb 0.00 in0.0 mm 0.00 in0.0 mm 0.00 in0.0 mm
03:12 AM 36.5°F2.5°C 34.9°F1.6°C 94% 2.0 mph WSW3.2 kmh WSW 7.0 mph11.3 kmh 30.24 in1024.0 mb 0.00 in0.0 mm 0.00 in0.0 mm 0.00 in0.0 mm
03:07 AM 36.7°F2.6°C 35.1°F1.7°C 94% 2.9 mph WSW4.7 kmh WSW 6.0 mph9.7 kmh 30.24 in1024.0 mb 0.00 in0.0 mm 0.00 in0.0 mm 0.00 in0.0 mm
03:01 AM 36.7°F2.6°C 35.1°F1.7°C 94% 2.9 mph WSW4.7 kmh WSW 7.0 mph11.3 kmh 30.24 in1024.0 mb 0.00 in0.0 mm 0.00 in0.0 mm 0.00 in0.0 mm
02:56 AM 36.7°F2.6°C 35.1°F1.7°C 94% 2.9 mph WSW4.7 kmh WSW 4.9 mph7.9 kmh 30.24 in1024.0 mb 0.00 in0.0 mm 0.00 in0.0 mm 0.00 in0.0 mm
02:51 AM 36.7°F2.6°C 34.9°F1.6°C 93% 2.9 mph WSW4.7 kmh WSW 6.0 mph9.7 kmh 30.24 in1024.0 mb 0.00 in0.0 mm 0.00 in0.0 mm 0.00 in0.0 mm
02:46 AM 36.9°F2.7°C 35.1°F1.7°C 93% 2.9 mph WSW4.7 kmh WSW 6.0 mph9.7 kmh 30.24 in1024.0 mb 0.00 in0.0 mm 0.00 in0.0 mm 0.00 in0.0 mm
02:40 AM 36.9°F2.7°C 35.1°F1.7°C 93% 2.9 mph WSW4.7 kmh WSW 4.9 mph7.9 kmh 30.23 in1023.7 mb 0.00 in0.0 mm 0.00 in0.0 mm 0.00 in0.0 mm
02:35 AM 37.0°F2.8°C 35.2°F1.8°C 93% 2.9 mph W4.7 kmh W 8.0 mph12.9 kmh 30.23 in1023.7 mb 0.00 in0.0 mm 0.00 in0.0 mm 0.00 in0.0 mm
02:30 AM 37.2°F2.9°C 35.4°F1.9°C 93% 2.9 mph W4.7 kmh W 4.9 mph7.9 kmh 30.23 in1023.7 mb 0.00 in0.0 mm 0.00 in0.0 mm 0.00 in0.0 mm
02:24 AM 37.2°F2.9°C 35.4°F1.9°C 93% 2.0 mph W3.2 kmh W 8.1 mph13.0 kmh 30.22 in1023.4 mb 0.00 in0.0 mm 0.00 in0.0 mm 0.00 in0.0 mm
02:19 AM 37.6°F3.1°C 35.8°F2.1°C 93% 2.9 mph WSW4.7 kmh WSW 6.0 mph9.7 kmh 30.22 in1023.4 mb 0.00 in0.0 mm 0.00 in0.0 mm 0.00 in0.0 mm
02:14 AM 37.6°F3.1°C 35.8°F2.1°C 93% 2.9 mph WSW4.7 kmh WSW 6.9 mph11.1 kmh 30.21 in1023.0 mb 0.00 in0.0 mm 0.00 in0.0 mm 0.00 in0.0 mm
02:09 AM 37.8°F3.2°C 36.0°F2.2°C 93% 2.9 mph WSW4.7 kmh WSW 7.0 mph11.3 kmh 30.21 in1023.0 mb 0.00 in0.0 mm 0.00 in0.0 mm 0.00 in0.0 mm
02:04 AM 37.9°F3.3°C 36.1°F2.3°C 93% 2.9 mph WSW4.7 kmh WSW 6.0 mph9.7 kmh 30.21 in1023.0 mb 0.00 in0.0 mm 0.00 in0.0 mm 0.00 in0.0 mm
01:58 AM 37.9°F3.3°C 36.1°F2.3°C 93% 4.0 mph WSW6.4 kmh WSW 10.0 mph16.1 kmh 30.21 in1023.0 mb 0.00 in0.0 mm 0.00 in0.0 mm 0.00 in0.0 mm
01:53 AM 37.9°F3.3°C 36.3°F2.4°C 94% 2.9 mph WSW4.7 kmh WSW 6.9 mph11.1 kmh 30.21 in1023.0 mb 0.00 in0.0 mm 0.00 in0.0 mm 0.00 in0.0 mm
01:48 AM 37.9°F3.3°C 36.3°F2.4°C 94% 2.9 mph WSW4.7 kmh WSW 10.1 mph16.3 kmh 30.21 in1023.0 mb 0.00 in0.0 mm 0.00 in0.0 mm 0.00 in0.0 mm
01:42 AM 37.8°F3.2°C 36.1°F2.3°C 94% 2.9 mph WSW4.7 kmh WSW 6.0 mph9.7 kmh 30.21 in1023.0 mb 0.00 in0.0 mm 0.00 in0.0 mm 0.00 in0.0 mm
01:37 AM 37.6°F3.1°C 36.3°F2.4°C 95% 2.9 mph WSW4.7 kmh WSW 8.9 mph14.3 kmh 30.21 in1023.0 mb 0.00 in0.0 mm 0.00 in0.0 mm 0.00 in0.0 mm
01:32 AM 37.6°F3.1°C 36.3°F2.4°C 95% 2.9 mph WSW4.7 kmh WSW 6.0 mph9.7 kmh 30.21 in1023.0 mb 0.00 in0.0 mm 0.00 in0.0 mm 0.00 in0.0 mm
01:27 AM 37.6°F3.1°C 36.3°F2.4°C 95% 2.9 mph WSW4.7 kmh WSW 6.0 mph9.7 kmh 30.20 in1022.7 mb 0.00 in0.0 mm 0.00 in0.0 mm 0.00 in0.0 mm
01:22 AM 37.2°F2.9°C 36.0°F2.2°C 95% 2.9 mph WSW4.7 kmh WSW 6.0 mph9.7 kmh 30.20 in1022.7 mb 0.00 in0.0 mm 0.00 in0.0 mm 0.00 in0.0 mm
01:17 AM 37.2°F2.9°C 36.0°F2.2°C 95% 2.9 mph WSW4.7 kmh WSW 8.0 mph12.9 kmh 30.20 in1022.7 mb 0.00 in0.0 mm 0.00 in0.0 mm 0.00 in0.0 mm
01:11 AM 37.2°F2.9°C 36.0°F2.2°C 95% 2.9 mph WSW4.7 kmh WSW 6.9 mph11.1 kmh 30.20 in1022.7 mb 0.00 in0.0 mm 0.00 in0.0 mm 0.00 in0.0 mm
01:06 AM 37.2°F2.9°C 36.0°F2.2°C 95% 2.9 mph WSW4.7 kmh WSW 8.1 mph13.0 kmh 30.20 in1022.7 mb 0.00 in0.0 mm 0.00 in0.0 mm 0.00 in0.0 mm
01:01 AM 37.2°F2.9°C 35.6°F2.0°C 94% 2.0 mph SW3.2 kmh SW 8.1 mph13.0 kmh 30.20 in1022.7 mb 0.00 in0.0 mm 0.00 in0.0 mm 0.00 in0.0 mm
12:56 AM 37.2°F2.9°C 35.6°F2.0°C 94% 2.0 mph WSW3.2 kmh WSW 4.9 mph7.9 kmh 30.18 in1022.0 mb 0.00 in0.0 mm 0.00 in0.0 mm 0.00 in0.0 mm
12:51 AM 37.2°F2.9°C 35.4°F1.9°C 93% 2.0 mph WSW3.2 kmh WSW 4.9 mph7.9 kmh 30.18 in1022.0 mb 0.00 in0.0 mm 0.00 in0.0 mm 0.00 in0.0 mm
12:45 AM 37.6°F3.1°C 35.8°F2.1°C 93% 0.9 mph WSW1.4 kmh WSW 4.0 mph6.4 kmh 30.18 in1022.0 mb 0.00 in0.0 mm 0.00 in0.0 mm 0.00 in0.0 mm
12:40 AM 37.8°F3.2°C 36.0°F2.2°C 93% 0.9 mph WSW1.4 kmh WSW 5.0 mph8.0 kmh 30.18 in1022.0 mb 0.00 in0.0 mm 0.00 in0.0 mm 0.00 in0.0 mm
12:35 AM 37.9°F3.3°C 36.1°F2.3°C 93% 0.9 mph WSW1.4 kmh WSW 2.9 mph4.7 kmh 30.18 in1022.0 mb 0.00 in0.0 mm 0.00 in0.0 mm 0.00 in0.0 mm
12:29 AM 38.1°F3.4°C 36.3°F2.4°C 93% 2.0 mph WSW3.2 kmh WSW 4.9 mph7.9 kmh 30.18 in1022.0 mb 0.00 in0.0 mm 0.00 in0.0 mm 0.00 in0.0 mm
12:24 AM 38.5°F3.6°C 36.7°F2.6°C 93% 2.9 mph WSW4.7 kmh WSW 6.0 mph9.7 kmh 30.18 in1022.0 mb 0.00 in0.0 mm 0.00 in0.0 mm 0.00 in0.0 mm
12:19 AM 38.7°F3.7°C 36.9°F2.7°C 93% 2.9 mph WSW4.7 kmh WSW 11.0 mph17.7 kmh 30.18 in1022.0 mb 0.00 in0.0 mm 0.00 in0.0 mm 0.00 in0.0 mm
12:14 AM 38.8°F3.8°C 37.0°F2.8°C 93% 2.0 mph WNW3.2 kmh WNW 8.9 mph14.3 kmh 30.18 in1022.0 mb 0.00 in0.0 mm 0.00 in0.0 mm 0.00 in0.0 mm
12:09 AM 38.8°F3.8°C 37.0°F2.8°C 93% 4.0 mph WSW6.4 kmh WSW 18.0 mph29.0 kmh 30.18 in1022.0 mb 0.00 in0.0 mm 0.00 in0.0 mm 0.00 in0.0 mm
12:03 AM 39.0°F3.9°C 37.2°F2.9°C 93% 6.0 mph WNW9.7 kmh WNW 11.0 mph17.7 kmh 30.18 in1022.0 mb 0.00 in0.0 mm 0.00 in0.0 mm 0.00 in0.0 mm